sensor_id;sensor_type;location;lat;lon;timestamp;noise_LAeq;noise_LA_min;noise_LA_max;noise_LA01;noise_LA95
67320;Laerm;57665;51.436;5.978;2023-01-13T00:00:09;40.50;39.30;42.13;;
67320;Laerm;57665;51.436;5.978;2023-01-13T00:00:20;40.55;39.28;42.32;;
67320;Laerm;57665;51.436;5.978;2023-01-13T00:00:30;40.28;38.81;44.37;;
67320;Laerm;57665;51.436;5.978;2023-01-13T00:00:41;40.61;39.07;46.25;;
67320;Laerm;57665;51.436;5.978;2023-01-13T00:00:51;40.11;39.19;42.47;;
67320;Laerm;57665;51.436;5.978;2023-01-13T00:01:05;41.25;39.16;46.38;;
67320;Laerm;57665;51.436;5.978;2023-01-13T00:01:18;66.34;47.03;74.27;;
67320;Laerm;57665;51.436;5.978;2023-01-13T00:01:28;64.83;61.94;67.74;;
67320;Laerm;57665;51.436;5.978;2023-01-13T00:01:39;56.66;42.72;68.73;;
67320;Laerm;57665;51.436;5.978;2023-01-13T00:01:49;42.38;40.12;46.58;;
67320;Laerm;57665;51.436;5.978;2023-01-13T00:01:59;43.18;40.02;56.49;;
67320;Laerm;57665;51.436;5.978;2023-01-13T00:02:10;45.09;40.41;55.22;;
67320;Laerm;57665;51.436;5.978;2023-01-13T00:02:20;42.27;40.32;53.64;;
67320;Laerm;57665;51.436;5.978;2023-01-13T00:02:31;41.16;39.77;43.58;;
67320;Laerm;57665;51.436;5.978;2023-01-13T00:02:41;41.40;40.16;44.64;;
67320;Laerm;57665;51.436;5.978;2023-01-13T00:02:51;40.78;39.06;45.10;;
67320;Laerm;57665;51.436;5.978;2023-01-13T00:03:02;40.30;39.07;41.22;;
67320;Laerm;57665;51.436;5.978;2023-01-13T00:03:12;40.00;38.98;41.13;;
67320;Laerm;57665;51.436;5.978;2023-01-13T00:03:22;40.17;38.87;41.78;;
67320;Laerm;57665;51.436;5.978;2023-01-13T00:03:32;40.28;39.40;41.91;;
67320;Laerm;57665;51.436;5.978;2023-01-13T00:03:43;40.16;39.10;41.55;;
67320;Laerm;57665;51.436;5.978;2023-01-13T00:03:54;40.69;39.28;42.44;;
67320;Laerm;57665;51.436;5.978;2023-01-13T00:04:04;39.99;38.87;41.80;;
67320;Laerm;57665;51.436;5.978;2023-01-13T00:04:14;40.29;39.14;41.70;;
67320;Laerm;57665;51.436;5.978;2023-01-13T00:04:25;40.59;39.15;42.17;;
67320;Laerm;57665;51.436;5.978;2023-01-13T00:04:35;40.37;39.13;42.31;;
67320;Laerm;57665;51.436;5.978;2023-01-13T00:04:45;40.25;39.27;41.47;;
67320;Laerm;57665;51.436;5.978;2023-01-13T00:04:55;40.66;39.10;45.62;;
67320;Laerm;57665;51.436;5.978;2023-01-13T00:05:06;40.57;39.26;41.58;;
67320;Laerm;57665;51.436;5.978;2023-01-13T00:05:16;40.23;39.21;41.51;;
67320;Laerm;57665;51.436;5.978;2023-01-13T00:05:26;40.47;39.47;41.67;;
67320;Laerm;57665;51.436;5.978;2023-01-13T00:05:37;40.54;39.14;41.70;;
67320;Laerm;57665;51.436;5.978;2023-01-13T00:05:47;40.39;39.45;41.51;;
67320;Laerm;57665;51.436;5.978;2023-01-13T00:05:58;40.68;39.32;42.62;;
67320;Laerm;57665;51.436;5.978;2023-01-13T00:06:10;40.59;39.39;41.99;;
67320;Laerm;57665;51.436;5.978;2023-01-13T00:06:22;40.51;39.32;41.80;;
67320;Laerm;57665;51.436;5.978;2023-01-13T00:06:34;41.16;39.55;42.86;;
67320;Laerm;57665;51.436;5.978;2023-01-13T00:06:45;41.70;40.36;43.19;;
67320;Laerm;57665;51.436;5.978;2023-01-13T00:06:55;42.61;40.54;44.75;;
67320;Laerm;57665;51.436;5.978;2023-01-13T00:07:05;41.60;40.33;43.91;;
67320;Laerm;57665;51.436;5.978;2023-01-13T00:07:15;41.03;39.76;42.26;;
67320;Laerm;57665;51.436;5.978;2023-01-13T00:07:25;40.92;39.47;43.34;;
67320;Laerm;57665;51.436;5.978;2023-01-13T00:07:36;40.70;39.64;44.59;;
67320;Laerm;57665;51.436;5.978;2023-01-13T00:07:50;40.84;39.73;42.95;;
67320;Laerm;57665;51.436;5.978;2023-01-13T00:08:00;40.66;39.10;42.24;;
67320;Laerm;57665;51.436;5.978;2023-01-13T00:08:10;40.30;39.08;41.31;;
67320;Laerm;57665;51.436;5.978;2023-01-13T00:08:20;40.56;39.28;41.99;;
67320;Laerm;57665;51.436;5.978;2023-01-13T00:08:31;41.24;39.61;43.38;;
67320;Laerm;57665;51.436;5.978;2023-01-13T00:08:41;42.19;41.05;44.61;;
67320;Laerm;57665;51.436;5.978;2023-01-13T00:08:52;41.76;40.53;43.72;;
67320;Laerm;57665;51.436;5.978;2023-01-13T00:09:02;41.83;40.44;43.12;;
67320;Laerm;57665;51.436;5.978;2023-01-13T00:09:12;42.02;40.73;43.35;;
67320;Laerm;57665;51.436;5.978;2023-01-13T00:09:23;41.19;39.65;42.48;;
67320;Laerm;57665;51.436;5.978;2023-01-13T00:09:33;41.14;39.58;42.47;;
67320;Laerm;57665;51.436;5.978;2023-01-13T00:09:43;40.94;39.89;42.43;;
67320;Laerm;57665;51.436;5.978;2023-01-13T00:09:53;42.12;39.71;52.15;;
67320;Laerm;57665;51.436;5.978;2023-01-13T00:10:04;41.20;39.75;42.64;;
67320;Laerm;57665;51.436;5.978;2023-01-13T00:10:14;41.18;40.01;43.98;;
67320;Laerm;57665;51.436;5.978;2023-01-13T00:10:24;41.92;40.21;44.72;;
67320;Laerm;57665;51.436;5.978;2023-01-13T00:10:35;41.92;40.60;44.95;;
67320;Laerm;57665;51.436;5.978;2023-01-13T00:10:45;41.06;39.89;42.44;;
67320;Laerm;57665;51.436;5.978;2023-01-13T00:10:56;40.79;39.64;41.80;;
67320;Laerm;57665;51.436;5.978;2023-01-13T00:11:06;41.03;39.69;42.47;;
67320;Laerm;57665;51.436;5.978;2023-01-13T00:11:17;41.18;39.84;43.94;;
67320;Laerm;57665;51.436;5.978;2023-01-13T00:11:27;41.28;39.62;44.47;;
67320;Laerm;57665;51.436;5.978;2023-01-13T00:11:38;41.01;39.81;42.57;;
67320;Laerm;57665;51.436;5.978;2023-01-13T00:11:48;41.62;40.22;43.36;;
67320;Laerm;57665;51.436;5.978;2023-01-13T00:11:58;42.28;40.78;43.73;;
67320;Laerm;57665;51.436;5.978;2023-01-13T00:12:08;41.55;40.38;43.25;;
67320;Laerm;57665;51.436;5.978;2023-01-13T00:12:18;41.12;39.68;49.21;;
67320;Laerm;57665;51.436;5.978;2023-01-13T00:12:29;40.63;39.44;43.43;;
67320;Laerm;57665;51.436;5.978;2023-01-13T00:12:39;40.65;39.43;45.80;;
67320;Laerm;57665;51.436;5.978;2023-01-13T00:12:49;40.71;39.44;42.29;;
67320;Laerm;57665;51.436;5.978;2023-01-13T00:13:00;40.56;39.44;41.66;;
67320;Laerm;57665;51.436;5.978;2023-01-13T00:13:12;40.23;39.03;41.57;;
67320;Laerm;57665;51.436;5.978;2023-01-13T00:13:22;40.53;39.32;43.18;;
67320;Laerm;57665;51.436;5.978;2023-01-13T00:13:35;41.23;39.43;50.24;;
67320;Laerm;57665;51.436;5.978;2023-01-13T00:13:47;40.53;39.07;41.74;;
67320;Laerm;57665;51.436;5.978;2023-01-13T00:13:57;40.78;39.58;42.22;;
67320;Laerm;57665;51.436;5.978;2023-01-13T00:14:07;40.72;39.55;45.60;;
67320;Laerm;57665;51.436;5.978;2023-01-13T00:14:18;41.53;39.80;44.15;;
67320;Laerm;57665;51.436;5.978;2023-01-13T00:14:28;41.52;39.85;42.87;;
67320;Laerm;57665;51.436;5.978;2023-01-13T00:14:39;41.67;40.01;51.54;;
67320;Laerm;57665;51.436;5.978;2023-01-13T00:14:49;41.67;40.06;50.68;;
67320;Laerm;57665;51.436;5.978;2023-01-13T00:14:59;43.22;40.73;47.51;;
67320;Laerm;57665;51.436;5.978;2023-01-13T00:15:09;41.25;39.78;42.92;;
67320;Laerm;57665;51.436;5.978;2023-01-13T00:15:20;41.05;39.33;50.20;;
67320;Laerm;57665;51.436;5.978;2023-01-13T00:15:30;40.17;39.04;41.17;;
67320;Laerm;57665;51.436;5.978;2023-01-13T00:15:41;40.18;38.84;41.33;;
67320;Laerm;57665;51.436;5.978;2023-01-13T00:15:58;40.51;39.18;42.21;;
67320;Laerm;57665;51.436;5.978;2023-01-13T00:16:09;40.74;39.14;44.70;;
67320;Laerm;57665;51.436;5.978;2023-01-13T00:16:20;41.26;39.43;43.65;;
67320;Laerm;57665;51.436;5.978;2023-01-13T00:16:30;41.67;40.24;44.97;;
67320;Laerm;57665;51.436;5.978;2023-01-13T00:16:41;40.76;39.37;42.12;;
67320;Laerm;57665;51.436;5.978;2023-01-13T00:16:51;40.38;38.99;41.88;;
67320;Laerm;57665;51.436;5.978;2023-01-13T00:17:04;40.40;39.20;41.30;;
67320;Laerm;57665;51.436;5.978;2023-01-13T00:17:14;40.83;39.64;42.42;;
67320;Laerm;57665;51.436;5.978;2023-01-13T00:17:24;40.55;39.46;42.00;;
67320;Laerm;57665;51.436;5.978;2023-01-13T00:17:34;40.48;39.54;42.73;;
67320;Laerm;57665;51.436;5.978;2023-01-13T00:17:45;41.31;39.88;49.87;;
67320;Laerm;57665;51.436;5.978;2023-01-13T00:17:55;40.63;39.44;41.89;;
67320;Laerm;57665;51.436;5.978;2023-01-13T00:18:05;40.91;39.67;42.65;;
67320;Laerm;57665;51.436;5.978;2023-01-13T00:18:15;41.26;40.19;42.50;;
67320;Laerm;57665;51.436;5.978;2023-01-13T00:18:26;41.46;39.85;43.76;;
67320;Laerm;57665;51.436;5.978;2023-01-13T00:18:36;41.34;39.97;44.43;;
67320;Laerm;57665;51.436;5.978;2023-01-13T00:18:47;44.23;40.22;56.38;;
67320;Laerm;57665;51.436;5.978;2023-01-13T00:19:00;40.89;39.72;42.68;;
67320;Laerm;57665;51.436;5.978;2023-01-13T00:19:10;40.61;39.43;41.78;;
67320;Laerm;57665;51.436;5.978;2023-01-13T00:19:20;40.66;39.46;41.86;;
67320;Laerm;57665;51.436;5.978;2023-01-13T00:19:30;40.63;39.20;42.05;;
67320;Laerm;57665;51.436;5.978;2023-01-13T00:19:41;40.93;39.89;42.14;;
67320;Laerm;57665;51.436;5.978;2023-01-13T00:19:51;40.70;39.28;41.93;;
67320;Laerm;57665;51.436;5.978;2023-01-13T00:20:01;40.43;39.11;41.53;;
67320;Laerm;57665;51.436;5.978;2023-01-13T00:20:12;40.40;39.24;41.42;;
67320;Laerm;57665;51.436;5.978;2023-01-13T00:20:22;40.64;39.22;41.75;;
67320;Laerm;57665;51.436;5.978;2023-01-13T00:20:32;41.14;39.70;42.93;;
67320;Laerm;57665;51.436;5.978;2023-01-13T00:20:42;41.29;40.19;42.75;;
67320;Laerm;57665;51.436;5.978;2023-01-13T00:21:16;40.61;39.19;44.77;;
67320;Laerm;57665;51.436;5.978;2023-01-13T00:21:26;40.24;39.26;41.54;;
67320;Laerm;57665;51.436;5.978;2023-01-13T00:21:36;40.47;39.30;41.75;;
67320;Laerm;57665;51.436;5.978;2023-01-13T00:21:47;40.54;39.37;41.96;;
67320;Laerm;57665;51.436;5.978;2023-01-13T00:21:57;41.14;39.74;42.68;;
67320;Laerm;57665;51.436;5.978;2023-01-13T00:22:08;40.60;39.54;41.64;;
67320;Laerm;57665;51.436;5.978;2023-01-13T00:22:18;40.83;39.61;42.53;;
67320;Laerm;57665;51.436;5.978;2023-01-13T00:22:28;40.77;39.68;42.22;;
67320;Laerm;57665;51.436;5.978;2023-01-13T00:22:38;40.82;39.65;42.04;;
67320;Laerm;57665;51.436;5.978;2023-01-13T00:22:48;41.88;40.52;43.55;;
67320;Laerm;57665;51.436;5.978;2023-01-13T00:22:59;41.60;39.86;43.75;;
67320;Laerm;57665;51.436;5.978;2023-01-13T00:23:10;41.33;39.80;47.35;;
67320;Laerm;57665;51.436;5.978;2023-01-13T00:23:20;40.96;39.82;42.48;;
67320;Laerm;57665;51.436;5.978;2023-01-13T00:23:31;41.16;40.14;43.11;;
67320;Laerm;57665;51.436;5.978;2023-01-13T00:23:42;40.64;39.36;41.92;;
67320;Laerm;57665;51.436;5.978;2023-01-13T00:23:53;40.74;39.64;41.87;;
67320;Laerm;57665;51.436;5.978;2023-01-13T00:24:03;40.57;39.52;41.75;;
67320;Laerm;57665;51.436;5.978;2023-01-13T00:24:14;41.13;39.61;43.36;;
67320;Laerm;57665;51.436;5.978;2023-01-13T00:24:24;40.56;39.59;42.09;;
67320;Laerm;57665;51.436;5.978;2023-01-13T00:24:34;41.17;39.91;42.65;;
67320;Laerm;57665;51.436;5.978;2023-01-13T00:24:45;40.80;39.32;43.36;;
67320;Laerm;57665;51.436;5.978;2023-01-13T00:24:55;40.83;39.20;42.12;;
67320;Laerm;57665;51.436;5.978;2023-01-13T00:25:07;41.39;39.92;44.58;;
67320;Laerm;57665;51.436;5.978;2023-01-13T00:25:17;41.35;39.83;43.79;;
67320;Laerm;57665;51.436;5.978;2023-01-13T00:25:27;41.69;39.81;44.88;;
67320;Laerm;57665;51.436;5.978;2023-01-13T00:25:37;42.42;40.23;56.21;;
67320;Laerm;57665;51.436;5.978;2023-01-13T00:25:48;41.27;39.49;42.54;;
67320;Laerm;57665;51.436;5.978;2023-01-13T00:25:58;41.96;40.40;43.82;;
67320;Laerm;57665;51.436;5.978;2023-01-13T00:26:11;41.90;40.26;44.19;;
67320;Laerm;57665;51.436;5.978;2023-01-13T00:26:23;41.54;40.18;43.33;;
67320;Laerm;57665;51.436;5.978;2023-01-13T00:26:34;41.02;39.45;43.40;;
67320;Laerm;57665;51.436;5.978;2023-01-13T00:26:44;41.13;39.94;44.42;;
67320;Laerm;57665;51.436;5.978;2023-01-13T00:26:55;40.91;39.66;42.25;;
67320;Laerm;57665;51.436;5.978;2023-01-13T00:27:05;40.70;39.72;41.76;;
67320;Laerm;57665;51.436;5.978;2023-01-13T00:27:15;40.77;39.73;44.91;;
67320;Laerm;57665;51.436;5.978;2023-01-13T00:27:26;40.97;39.60;42.31;;
67320;Laerm;57665;51.436;5.978;2023-01-13T00:27:37;40.76;39.49;42.16;;
67320;Laerm;57665;51.436;5.978;2023-01-13T00:27:47;40.79;39.59;42.07;;
67320;Laerm;57665;51.436;5.978;2023-01-13T00:27:57;40.76;39.67;41.98;;
67320;Laerm;57665;51.436;5.978;2023-01-13T00:28:07;40.76;39.85;41.94;;
67320;Laerm;57665;51.436;5.978;2023-01-13T00:28:19;40.73;39.72;42.05;;
67320;Laerm;57665;51.436;5.978;2023-01-13T00:28:29;41.08;39.71;42.15;;
67320;Laerm;57665;51.436;5.978;2023-01-13T00:28:39;41.01;39.79;43.16;;
67320;Laerm;57665;51.436;5.978;2023-01-13T00:28:50;41.02;39.99;43.01;;
67320;Laerm;57665;51.436;5.978;2023-01-13T00:29:00;40.93;39.60;42.14;;
67320;Laerm;57665;51.436;5.978;2023-01-13T00:29:10;41.16;39.65;42.47;;
67320;Laerm;57665;51.436;5.978;2023-01-13T00:29:21;40.71;39.53;42.06;;
67320;Laerm;57665;51.436;5.978;2023-01-13T00:29:31;40.42;39.33;41.77;;
67320;Laerm;57665;51.436;5.978;2023-01-13T00:29:41;40.06;39.09;41.05;;
67320;Laerm;57665;51.436;5.978;2023-01-13T00:29:51;40.53;39.01;42.44;;
67320;Laerm;57665;51.436;5.978;2023-01-13T00:30:02;40.92;39.26;42.99;;
67320;Laerm;57665;51.436;5.978;2023-01-13T00:30:13;40.75;39.64;42.45;;
67320;Laerm;57665;51.436;5.978;2023-01-13T00:30:23;40.87;39.61;42.23;;
67320;Laerm;57665;51.436;5.978;2023-01-13T00:30:33;41.53;40.47;43.66;;
67320;Laerm;57665;51.436;5.978;2023-01-13T00:30:47;40.88;39.80;42.09;;
67320;Laerm;57665;51.436;5.978;2023-01-13T00:31:33;40.74;39.14;44.97;;
67320;Laerm;57665;51.436;5.978;2023-01-13T00:31:44;40.41;39.28;42.52;;
67320;Laerm;57665;51.436;5.978;2023-01-13T00:31:54;41.70;39.83;49.24;;
67320;Laerm;57665;51.436;5.978;2023-01-13T00:32:04;41.42;40.12;45.27;;
67320;Laerm;57665;51.436;5.978;2023-01-13T00:32:14;41.25;39.79;48.81;;
67320;Laerm;57665;51.436;5.978;2023-01-13T00:32:25;41.33;40.23;42.58;;
67320;Laerm;57665;51.436;5.978;2023-01-13T00:32:35;41.10;39.73;42.33;;
67320;Laerm;57665;51.436;5.978;2023-01-13T00:32:45;40.74;39.70;41.92;;
67320;Laerm;57665;51.436;5.978;2023-01-13T00:32:56;40.76;39.62;41.64;;
67320;Laerm;57665;51.436;5.978;2023-01-13T00:33:06;40.84;39.58;42.13;;
67320;Laerm;57665;51.436;5.978;2023-01-13T00:33:16;40.98;39.42;42.85;;
67320;Laerm;57665;51.436;5.978;2023-01-13T00:33:26;40.74;39.36;41.98;;
67320;Laerm;57665;51.436;5.978;2023-01-13T00:33:37;40.42;39.26;41.91;;
67320;Laerm;57665;51.436;5.978;2023-01-13T00:33:47;40.55;39.50;41.64;;
67320;Laerm;57665;51.436;5.978;2023-01-13T00:34:00;41.01;39.71;45.27;;
67320;Laerm;57665;51.436;5.978;2023-01-13T00:34:11;40.79;39.77;42.21;;
67320;Laerm;57665;51.436;5.978;2023-01-13T00:34:21;40.54;39.32;41.58;;
67320;Laerm;57665;51.436;5.978;2023-01-13T00:34:31;40.63;39.50;41.66;;
67320;Laerm;57665;51.436;5.978;2023-01-13T00:34:42;40.58;39.44;41.96;;
67320;Laerm;57665;51.436;5.978;2023-01-13T00:34:52;40.76;39.55;42.16;;
67320;Laerm;57665;51.436;5.978;2023-01-13T00:35:02;40.71;39.76;41.86;;
67320;Laerm;57665;51.436;5.978;2023-01-13T00:35:13;40.88;39.59;42.35;;
67320;Laerm;57665;51.436;5.978;2023-01-13T00:35:23;40.84;39.38;42.55;;
67320;Laerm;57665;51.436;5.978;2023-01-13T00:35:33;40.80;39.56;42.67;;
67320;Laerm;57665;51.436;5.978;2023-01-13T00:35:43;40.83;39.59;41.92;;
67320;Laerm;57665;51.436;5.978;2023-01-13T00:35:54;41.37;40.06;43.96;;
67320;Laerm;57665;51.436;5.978;2023-01-13T00:36:05;41.28;40.16;42.50;;
67320;Laerm;57665;51.436;5.978;2023-01-13T00:36:17;41.37;40.19;42.87;;
67320;Laerm;57665;51.436;5.978;2023-01-13T00:36:28;40.97;39.55;42.67;;
67320;Laerm;57665;51.436;5.978;2023-01-13T00:36:38;40.81;39.50;44.54;;
67320;Laerm;57665;51.436;5.978;2023-01-13T00:36:48;40.92;39.77;42.35;;
67320;Laerm;57665;51.436;5.978;2023-01-13T00:36:58;41.00;39.76;42.75;;
67320;Laerm;57665;51.436;5.978;2023-01-13T00:37:09;40.85;39.81;41.87;;
67320;Laerm;57665;51.436;5.978;2023-01-13T00:37:22;40.72;39.65;42.16;;
67320;Laerm;57665;51.436;5.978;2023-01-13T00:37:34;40.92;39.51;42.21;;
67320;Laerm;57665;51.436;5.978;2023-01-13T00:37:44;40.62;39.20;41.89;;
67320;Laerm;57665;51.436;5.978;2023-01-13T00:37:55;40.51;39.15;41.79;;
67320;Laerm;57665;51.436;5.978;2023-01-13T00:38:05;40.69;39.69;41.90;;
67320;Laerm;57665;51.436;5.978;2023-01-13T00:38:15;40.80;39.69;42.00;;
67320;Laerm;57665;51.436;5.978;2023-01-13T00:38:25;40.92;39.73;42.59;;
67320;Laerm;57665;51.436;5.978;2023-01-13T00:38:36;40.99;39.47;46.24;;
67320;Laerm;57665;51.436;5.978;2023-01-13T00:38:47;40.91;39.35;43.59;;
67320;Laerm;57665;51.436;5.978;2023-01-13T00:38:58;41.24;39.79;42.97;;
67320;Laerm;57665;51.436;5.978;2023-01-13T00:39:08;41.76;40.12;45.56;;
67320;Laerm;57665;51.436;5.978;2023-01-13T00:39:18;41.69;40.16;45.27;;
67320;Laerm;57665;51.436;5.978;2023-01-13T00:39:28;45.38;40.01;61.50;;
67320;Laerm;57665;51.436;5.978;2023-01-13T00:39:39;40.90;39.44;42.37;;
67320;Laerm;57665;51.436;5.978;2023-01-13T00:39:50;40.65;39.57;42.24;;
67320;Laerm;57665;51.436;5.978;2023-01-13T00:40:00;40.53;39.25;42.90;;
67320;Laerm;57665;51.436;5.978;2023-01-13T00:40:11;40.59;38.87;44.66;;
67320;Laerm;57665;51.436;5.978;2023-01-13T00:40:21;40.70;39.37;43.41;;
67320;Laerm;57665;51.436;5.978;2023-01-13T00:40:31;40.56;39.49;41.66;;
67320;Laerm;57665;51.436;5.978;2023-01-13T00:40:41;40.61;39.65;41.54;;
67320;Laerm;57665;51.436;5.978;2023-01-13T00:40:58;40.92;39.78;42.82;;
67320;Laerm;57665;51.436;5.978;2023-01-13T00:41:14;40.64;39.38;42.10;;
67320;Laerm;57665;51.436;5.978;2023-01-13T00:41:24;40.63;39.37;41.90;;
67320;Laerm;57665;51.436;5.978;2023-01-13T00:41:35;42.13;39.86;46.70;;
67320;Laerm;57665;51.436;5.978;2023-01-13T00:42:17;41.40;38.92;55.99;;
67320;Laerm;57665;51.436;5.978;2023-01-13T00:42:46;40.66;39.16;42.47;;
67320;Laerm;57665;51.436;5.978;2023-01-13T00:43:15;40.61;39.12;42.08;;
67320;Laerm;57665;51.436;5.978;2023-01-13T00:43:35;40.77;39.11;42.13;;
67320;Laerm;57665;51.436;5.978;2023-01-13T00:43:46;40.50;39.25;41.80;;
67320;Laerm;57665;51.436;5.978;2023-01-13T00:43:56;40.44;39.34;41.84;;
67320;Laerm;57665;51.436;5.978;2023-01-13T00:44:06;40.26;39.16;41.50;;
67320;Laerm;57665;51.436;5.978;2023-01-13T00:44:17;40.28;39.32;41.14;;
67320;Laerm;57665;51.436;5.978;2023-01-13T00:44:27;40.34;39.40;41.22;;
67320;Laerm;57665;51.436;5.978;2023-01-13T00:44:37;41.37;39.56;51.87;;
67320;Laerm;57665;51.436;5.978;2023-01-13T00:44:47;40.77;39.51;42.08;;
67320;Laerm;57665;51.436;5.978;2023-01-13T00:44:57;41.30;40.15;42.42;;
67320;Laerm;57665;51.436;5.978;2023-01-13T00:45:08;41.82;40.56;43.09;;
67320;Laerm;57665;51.436;5.978;2023-01-13T00:45:18;41.88;40.24;44.04;;
67320;Laerm;57665;51.436;5.978;2023-01-13T00:45:28;41.48;40.02;42.95;;
67320;Laerm;57665;51.436;5.978;2023-01-13T00:45:38;41.14;39.68;47.53;;
67320;Laerm;57665;51.436;5.978;2023-01-13T00:45:49;40.66;39.35;45.97;;
67320;Laerm;57665;51.436;5.978;2023-01-13T00:46:03;42.39;39.69;52.89;;
67320;Laerm;57665;51.436;5.978;2023-01-13T00:46:14;40.61;39.38;42.61;;
67320;Laerm;57665;51.436;5.978;2023-01-13T00:46:25;41.00;39.60;46.04;;
67320;Laerm;57665;51.436;5.978;2023-01-13T00:46:35;40.47;39.18;42.23;;
67320;Laerm;57665;51.436;5.978;2023-01-13T00:46:45;40.35;39.34;41.19;;
67320;Laerm;57665;51.436;5.978;2023-01-13T00:46:55;40.42;39.42;41.44;;
67320;Laerm;57665;51.436;5.978;2023-01-13T00:47:06;40.34;39.06;41.39;;
67320;Laerm;57665;51.436;5.978;2023-01-13T00:47:16;40.59;39.46;41.81;;
67320;Laerm;57665;51.436;5.978;2023-01-13T00:47:27;41.16;39.60;48.59;;
67320;Laerm;57665;51.436;5.978;2023-01-13T00:47:37;42.33;39.81;50.38;;
67320;Laerm;57665;51.436;5.978;2023-01-13T00:47:47;43.19;40.75;51.46;;
67320;Laerm;57665;51.436;5.978;2023-01-13T00:47:57;42.32;40.71;49.11;;
67320;Laerm;57665;51.436;5.978;2023-01-13T00:48:08;42.13;40.21;44.24;;
67320;Laerm;57665;51.436;5.978;2023-01-13T00:48:18;41.13;39.77;42.39;;
67320;Laerm;57665;51.436;5.978;2023-01-13T00:48:29;41.07;39.64;42.65;;
67320;Laerm;57665;51.436;5.978;2023-01-13T00:48:40;41.80;39.68;47.82;;
67320;Laerm;57665;51.436;5.978;2023-01-13T00:48:50;41.29;39.76;49.36;;
67320;Laerm;57665;51.436;5.978;2023-01-13T00:49:00;40.58;39.40;43.36;;
67320;Laerm;57665;51.436;5.978;2023-01-13T00:49:10;40.62;39.45;43.79;;
67320;Laerm;57665;51.436;5.978;2023-01-13T00:49:21;40.56;39.43;41.53;;
67320;Laerm;57665;51.436;5.978;2023-01-13T00:49:31;40.58;39.57;41.76;;
67320;Laerm;57665;51.436;5.978;2023-01-13T00:49:41;40.76;39.52;41.99;;
67320;Laerm;57665;51.436;5.978;2023-01-13T00:49:51;40.79;39.17;42.57;;
67320;Laerm;57665;51.436;5.978;2023-01-13T00:50:02;41.26;39.62;47.62;;
67320;Laerm;57665;51.436;5.978;2023-01-13T00:50:12;41.86;39.68;55.58;;
67320;Laerm;57665;51.436;5.978;2023-01-13T00:50:22;40.45;39.38;41.85;;
67320;Laerm;57665;51.436;5.978;2023-01-13T00:50:32;40.65;39.59;42.99;;
67320;Laerm;57665;51.436;5.978;2023-01-13T00:50:42;40.64;39.65;41.75;;
67320;Laerm;57665;51.436;5.978;2023-01-13T00:50:53;40.56;39.05;41.76;;
67320;Laerm;57665;51.436;5.978;2023-01-13T00:51:08;40.52;39.32;42.15;;
67320;Laerm;57665;51.436;5.978;2023-01-13T00:51:19;40.44;39.37;41.59;;
67320;Laerm;57665;51.436;5.978;2023-01-13T00:51:29;40.48;39.14;41.64;;
67320;Laerm;57665;51.436;5.978;2023-01-13T00:51:40;40.54;39.36;41.70;;
67320;Laerm;57665;51.436;5.978;2023-01-13T00:51:50;41.68;39.95;50.49;;
67320;Laerm;57665;51.436;5.978;2023-01-13T00:52:00;43.02;40.07;53.14;;
67320;Laerm;57665;51.436;5.978;2023-01-13T00:52:10;40.73;39.08;47.50;;
67320;Laerm;57665;51.436;5.978;2023-01-13T00:52:21;40.68;39.05;43.88;;
67320;Laerm;57665;51.436;5.978;2023-01-13T00:52:31;40.54;39.26;41.75;;
67320;Laerm;57665;51.436;5.978;2023-01-13T00:52:42;40.76;39.56;42.61;;
67320;Laerm;57665;51.436;5.978;2023-01-13T00:52:52;40.82;39.75;41.96;;
67320;Laerm;57665;51.436;5.978;2023-01-13T00:53:02;40.38;39.32;41.23;;
67320;Laerm;57665;51.436;5.978;2023-01-13T00:53:12;40.66;39.32;41.93;;
67320;Laerm;57665;51.436;5.978;2023-01-13T00:53:24;40.88;39.66;42.15;;
67320;Laerm;57665;51.436;5.978;2023-01-13T00:53:36;40.75;39.59;41.85;;
67320;Laerm;57665;51.436;5.978;2023-01-13T00:53:47;40.81;39.69;41.95;;
67320;Laerm;57665;51.436;5.978;2023-01-13T00:53:58;40.69;39.61;41.85;;
67320;Laerm;57665;51.436;5.978;2023-01-13T00:54:08;40.89;39.70;42.19;;
67320;Laerm;57665;51.436;5.978;2023-01-13T00:54:18;40.90;39.60;42.05;;
67320;Laerm;57665;51.436;5.978;2023-01-13T00:54:28;41.00;39.67;42.07;;
67320;Laerm;57665;51.436;5.978;2023-01-13T00:54:38;41.18;40.15;42.43;;
67320;Laerm;57665;51.436;5.978;2023-01-13T00:54:49;41.06;39.69;42.75;;
67320;Laerm;57665;51.436;5.978;2023-01-13T00:54:59;41.03;39.74;42.00;;
67320;Laerm;57665;51.436;5.978;2023-01-13T00:55:09;41.02;40.00;42.24;;
67320;Laerm;57665;51.436;5.978;2023-01-13T00:55:20;41.22;40.20;42.72;;
67320;Laerm;57665;51.436;5.978;2023-01-13T00:55:30;40.98;39.95;42.18;;
67320;Laerm;57665;51.436;5.978;2023-01-13T00:55:41;40.96;39.87;42.44;;
67320;Laerm;57665;51.436;5.978;2023-01-13T00:56:01;40.70;39.49;41.74;;
67320;Laerm;57665;51.436;5.978;2023-01-13T00:56:14;40.69;39.58;41.97;;
67320;Laerm;57665;51.436;5.978;2023-01-13T00:56:24;40.78;39.84;41.89;;
67320;Laerm;57665;51.436;5.978;2023-01-13T00:56:34;41.78;40.10;49.45;;
67320;Laerm;57665;51.436;5.978;2023-01-13T00:56:45;41.14;39.79;42.43;;
67320;Laerm;57665;51.436;5.978;2023-01-13T00:56:55;42.50;39.69;53.58;;
67320;Laerm;57665;51.436;5.978;2023-01-13T00:57:05;41.03;39.82;43.15;;
67320;Laerm;57665;51.436;5.978;2023-01-13T00:57:15;40.84;39.61;41.91;;
67320;Laerm;57665;51.436;5.978;2023-01-13T00:57:25;40.89;39.78;47.21;;
67320;Laerm;57665;51.436;5.978;2023-01-13T00:57:36;46.21;39.78;62.86;;
67320;Laerm;57665;51.436;5.978;2023-01-13T00:57:46;40.95;39.69;49.47;;
67320;Laerm;57665;51.436;5.978;2023-01-13T00:57:56;41.12;40.03;42.75;;
67320;Laerm;57665;51.436;5.978;2023-01-13T00:58:12;41.09;39.70;45.33;;
67320;Laerm;57665;51.436;5.978;2023-01-13T00:58:22;41.34;40.05;43.04;;
67320;Laerm;57665;51.436;5.978;2023-01-13T00:58:33;41.37;40.17;43.15;;
67320;Laerm;57665;51.436;5.978;2023-01-13T00:58:43;41.23;40.02;43.13;;
67320;Laerm;57665;51.436;5.978;2023-01-13T00:58:54;41.35;39.89;46.48;;
67320;Laerm;57665;51.436;5.978;2023-01-13T00:59:11;40.76;39.48;42.18;;
67320;Laerm;57665;51.436;5.978;2023-01-13T00:59:21;40.85;39.80;41.96;;
67320;Laerm;57665;51.436;5.978;2023-01-13T00:59:32;40.86;39.79;42.08;;
67320;Laerm;57665;51.436;5.978;2023-01-13T00:59:42;40.84;39.37;43.30;;
67320;Laerm;57665;51.436;5.978;2023-01-13T00:59:52;40.87;39.70;43.91;;
67320;Laerm;57665;51.436;5.978;2023-01-13T01:00:02;40.69;38.97;41.90;;
67320;Laerm;57665;51.436;5.978;2023-01-13T01:00:13;44.73;39.77;57.75;;
67320;Laerm;57665;51.436;5.978;2023-01-13T01:00:23;44.29;39.97;62.72;;
67320;Laerm;57665;51.436;5.978;2023-01-13T01:00:34;41.85;40.23;48.47;;
67320;Laerm;57665;51.436;5.978;2023-01-13T01:00:44;41.19;40.01;43.36;;
67320;Laerm;57665;51.436;5.978;2023-01-13T01:00:58;41.26;39.83;42.43;;
67320;Laerm;57665;51.436;5.978;2023-01-13T01:01:10;40.98;39.80;42.01;;
67320;Laerm;57665;51.436;5.978;2023-01-13T01:01:21;41.03;40.02;42.81;;
67320;Laerm;57665;51.436;5.978;2023-01-13T01:01:32;40.84;39.47;41.89;;
67320;Laerm;57665;51.436;5.978;2023-01-13T01:01:42;40.68;39.47;42.78;;
67320;Laerm;57665;51.436;5.978;2023-01-13T01:01:52;40.76;39.72;42.06;;
67320;Laerm;57665;51.436;5.978;2023-01-13T01:02:02;40.96;39.03;42.52;;